sensor_id;sensor_type;location;lat;lon;timestamp;temperature;humidity
21744;DHT22;11034;48.556;9.342;2023-07-29T00:00:54;17.10;99.90
21744;DHT22;11034;48.556;9.342;2023-07-29T00:03:23;17.10;99.90
21744;DHT22;11034;48.556;9.342;2023-07-29T00:05:51;17.20;99.90
21744;DHT22;11034;48.556;9.342;2023-07-29T00:08:19;17.30;99.90
21744;DHT22;11034;48.556;9.342;2023-07-29T00:10:47;17.30;99.90
21744;DHT22;11034;48.556;9.342;2023-07-29T00:13:17;17.30;99.90
21744;DHT22;11034;48.556;9.342;2023-07-29T00:15:48;17.30;99.90
21744;DHT22;11034;48.556;9.342;2023-07-29T00:18:16;17.40;99.90
21744;DHT22;11034;48.556;9.342;2023-07-29T00:20:44;17.50;99.90
21744;DHT22;11034;48.556;9.342;2023-07-29T00:23:12;17.50;99.90
21744;DHT22;11034;48.556;9.342;2023-07-29T00:25:40;17.50;99.90
21744;DHT22;11034;48.556;9.342;2023-07-29T00:28:08;17.60;99.90
21744;DHT22;11034;48.556;9.342;2023-07-29T00:30:38;17.60;99.90
21744;DHT22;11034;48.556;9.342;2023-07-29T00:33:06;17.60;99.90
21744;DHT22;11034;48.556;9.342;2023-07-29T00:35:34;17.60;99.90
21744;DHT22;11034;48.556;9.342;2023-07-29T00:38:06;17.70;99.90
21744;DHT22;11034;48.556;9.342;2023-07-29T00:40:37;17.70;99.90
21744;DHT22;11034;48.556;9.342;2023-07-29T00:43:05;17.70;99.90
21744;DHT22;11034;48.556;9.342;2023-07-29T00:45:34;17.70;99.90
21744;DHT22;11034;48.556;9.342;2023-07-29T00:48:04;17.70;99.90
21744;DHT22;11034;48.556;9.342;2023-07-29T00:50:32;17.70;99.90
21744;DHT22;11034;48.556;9.342;2023-07-29T00:53:00;17.70;99.90
21744;DHT22;11034;48.556;9.342;2023-07-29T00:55:30;17.70;99.90
21744;DHT22;11034;48.556;9.342;2023-07-29T00:57:58;17.70;99.90
21744;DHT22;11034;48.556;9.342;2023-07-29T01:00:27;17.70;99.90
21744;DHT22;11034;48.556;9.342;2023-07-29T01:02:55;17.70;99.90
21744;DHT22;11034;48.556;9.342;2023-07-29T01:05:30;17.70;99.90
21744;DHT22;11034;48.556;9.342;2023-07-29T01:08:05;17.70;99.90
21744;DHT22;11034;48.556;9.342;2023-07-29T01:10:46;17.80;99.90
21744;DHT22;11034;48.556;9.342;2023-07-29T01:13:23;17.90;99.90
21744;DHT22;11034;48.556;9.342;2023-07-29T01:15:55;17.80;99.90
21744;DHT22;11034;48.556;9.342;2023-07-29T01:18:26;17.90;99.90
21744;DHT22;11034;48.556;9.342;2023-07-29T01:20:59;17.90;99.90
21744;DHT22;11034;48.556;9.342;2023-07-29T01:23:30;17.80;99.90
21744;DHT22;11034;48.556;9.342;2023-07-29T01:25:59;17.90;99.90
21744;DHT22;11034;48.556;9.342;2023-07-29T01:28:27;17.90;99.90
21744;DHT22;11034;48.556;9.342;2023-07-29T01:31:01;17.90;99.90
21744;DHT22;11034;48.556;9.342;2023-07-29T01:33:34;17.90;99.90
21744;DHT22;11034;48.556;9.342;2023-07-29T01:36:06;17.90;99.90
21744;DHT22;11034;48.556;9.342;2023-07-29T01:38:38;17.90;99.90
21744;DHT22;11034;48.556;9.342;2023-07-29T01:41:08;18.00;99.90
21744;DHT22;11034;48.556;9.342;2023-07-29T01:43:38;18.00;99.90
21744;DHT22;11034;48.556;9.342;2023-07-29T01:46:11;18.10;99.90
21744;DHT22;11034;48.556;9.342;2023-07-29T01:48:40;18.10;99.90
21744;DHT22;11034;48.556;9.342;2023-07-29T01:51:08;18.10;99.90
21744;DHT22;11034;48.556;9.342;2023-07-29T01:53:37;18.10;99.90
21744;DHT22;11034;48.556;9.342;2023-07-29T01:56:05;18.10;99.90
21744;DHT22;11034;48.556;9.342;2023-07-29T01:58:33;18.10;99.90
21744;DHT22;11034;48.556;9.342;2023-07-29T02:01:01;18.10;99.90
21744;DHT22;11034;48.556;9.342;2023-07-29T02:03:29;18.10;99.90
21744;DHT22;11034;48.556;9.342;2023-07-29T02:05:57;18.00;99.90
21744;DHT22;11034;48.556;9.342;2023-07-29T02:08:26;18.10;99.90
21744;DHT22;11034;48.556;9.342;2023-07-29T02:10:55;18.00;99.90
21744;DHT22;11034;48.556;9.342;2023-07-29T02:13:23;18.00;99.90
21744;DHT22;11034;48.556;9.342;2023-07-29T02:15:51;18.00;99.90
21744;DHT22;11034;48.556;9.342;2023-07-29T02:18:19;17.90;99.90
21744;DHT22;11034;48.556;9.342;2023-07-29T02:20:47;17.90;99.90
21744;DHT22;11034;48.556;9.342;2023-07-29T02:23:16;17.80;99.90
21744;DHT22;11034;48.556;9.342;2023-07-29T02:25:44;17.80;99.90
21744;DHT22;11034;48.556;9.342;2023-07-29T02:28:14;17.80;99.90
21744;DHT22;11034;48.556;9.342;2023-07-29T02:30:42;17.70;99.90
21744;DHT22;11034;48.556;9.342;2023-07-29T02:33:12;17.70;99.90
21744;DHT22;11034;48.556;9.342;2023-07-29T02:35:40;17.70;99.90
21744;DHT22;11034;48.556;9.342;2023-07-29T02:38:10;17.80;99.90
21744;DHT22;11034;48.556;9.342;2023-07-29T02:40:38;17.90;99.90
21744;DHT22;11034;48.556;9.342;2023-07-29T02:43:07;17.90;99.90
21744;DHT22;11034;48.556;9.342;2023-07-29T02:45:36;18.00;99.90
21744;DHT22;11034;48.556;9.342;2023-07-29T02:48:04;18.10;99.90
21744;DHT22;11034;48.556;9.342;2023-07-29T02:50:34;18.10;99.90
21744;DHT22;11034;48.556;9.342;2023-07-29T02:53:02;18.10;99.90
21744;DHT22;11034;48.556;9.342;2023-07-29T02:55:30;18.20;99.90
21744;DHT22;11034;48.556;9.342;2023-07-29T02:57:58;18.20;99.90
21744;DHT22;11034;48.556;9.342;2023-07-29T03:00:26;18.10;99.90
21744;DHT22;11034;48.556;9.342;2023-07-29T03:02:56;18.20;99.90
21744;DHT22;11034;48.556;9.342;2023-07-29T03:05:24;18.20;99.90
21744;DHT22;11034;48.556;9.342;2023-07-29T03:07:54;18.10;99.90
21744;DHT22;11034;48.556;9.342;2023-07-29T03:10:22;18.10;99.90
21744;DHT22;11034;48.556;9.342;2023-07-29T03:12:50;18.20;99.90
21744;DHT22;11034;48.556;9.342;2023-07-29T03:15:18;18.20;99.90
21744;DHT22;11034;48.556;9.342;2023-07-29T03:17:47;18.20;99.90
21744;DHT22;11034;48.556;9.342;2023-07-29T03:20:17;18.20;99.90
21744;DHT22;11034;48.556;9.342;2023-07-29T03:22:45;18.20;99.90
21744;DHT22;11034;48.556;9.342;2023-07-29T03:25:14;18.20;99.90
21744;DHT22;11034;48.556;9.342;2023-07-29T03:27:42;18.20;99.90
21744;DHT22;11034;48.556;9.342;2023-07-29T03:30:10;18.20;99.90
21744;DHT22;11034;48.556;9.342;2023-07-29T03:32:43;18.10;99.90
21744;DHT22;11034;48.556;9.342;2023-07-29T03:35:12;18.10;99.90
21744;DHT22;11034;48.556;9.342;2023-07-29T03:37:41;18.10;99.90
21744;DHT22;11034;48.556;9.342;2023-07-29T03:40:10;18.10;99.90
21744;DHT22;11034;48.556;9.342;2023-07-29T03:42:38;18.20;99.90
21744;DHT22;11034;48.556;9.342;2023-07-29T03:45:07;18.20;99.90
21744;DHT22;11034;48.556;9.342;2023-07-29T03:47:35;18.10;99.90
21744;DHT22;11034;48.556;9.342;2023-07-29T03:50:04;18.20;99.90
21744;DHT22;11034;48.556;9.342;2023-07-29T03:52:32;18.20;99.90
21744;DHT22;11034;48.556;9.342;2023-07-29T03:55:01;18.20;99.90
21744;DHT22;11034;48.556;9.342;2023-07-29T03:57:29;18.20;99.90
21744;DHT22;11034;48.556;9.342;2023-07-29T03:59:57;18.20;99.90
21744;DHT22;11034;48.556;9.342;2023-07-29T04:02:25;18.20;99.90
21744;DHT22;11034;48.556;9.342;2023-07-29T04:04:53;18.20;99.90
21744;DHT22;11034;48.556;9.342;2023-07-29T04:07:22;18.20;99.90
21744;DHT22;11034;48.556;9.342;2023-07-29T04:09:50;18.20;99.90
21744;DHT22;11034;48.556;9.342;2023-07-29T04:12:19;18.20;99.90
21744;DHT22;11034;48.556;9.342;2023-07-29T04:14:48;18.20;99.90
21744;DHT22;11034;48.556;9.342;2023-07-29T04:17:16;18.30;99.90
21744;DHT22;11034;48.556;9.342;2023-07-29T04:19:44;18.30;99.90
21744;DHT22;11034;48.556;9.342;2023-07-29T04:22:12;18.30;99.90
21744;DHT22;11034;48.556;9.342;2023-07-29T04:24:40;18.30;99.90
21744;DHT22;11034;48.556;9.342;2023-07-29T04:27:08;18.30;99.90
21744;DHT22;11034;48.556;9.342;2023-07-29T04:29:38;18.40;99.90
21744;DHT22;11034;48.556;9.342;2023-07-29T04:32:06;18.40;99.90
21744;DHT22;11034;48.556;9.342;2023-07-29T04:34:34;18.50;99.90
21744;DHT22;11034;48.556;9.342;2023-07-29T04:37:02;18.50;99.90
21744;DHT22;11034;48.556;9.342;2023-07-29T04:39:30;18.50;99.90
21744;DHT22;11034;48.556;9.342;2023-07-29T04:41:59;18.60;99.90
21744;DHT22;11034;48.556;9.342;2023-07-29T04:44:28;18.60;99.90
21744;DHT22;11034;48.556;9.342;2023-07-29T04:46:58;18.70;99.90
21744;DHT22;11034;48.556;9.342;2023-07-29T04:49:26;18.80;99.90
21744;DHT22;11034;48.556;9.342;2023-07-29T04:51:54;18.80;99.90
21744;DHT22;11034;48.556;9.342;2023-07-29T04:54:22;18.80;99.90
21744;DHT22;11034;48.556;9.342;2023-07-29T04:56:50;18.90;99.90
21744;DHT22;11034;48.556;9.342;2023-07-29T04:59:18;18.90;99.90
21744;DHT22;11034;48.556;9.342;2023-07-29T05:01:46;19.00;99.90
21744;DHT22;11034;48.556;9.342;2023-07-29T05:04:16;19.10;99.90
21744;DHT22;11034;48.556;9.342;2023-07-29T05:06:44;19.10;99.90
21744;DHT22;11034;48.556;9.342;2023-07-29T05:09:13;19.00;99.90
21744;DHT22;11034;48.556;9.342;2023-07-29T05:11:42;19.00;99.90
21744;DHT22;11034;48.556;9.342;2023-07-29T05:14:13;18.90;99.90
21744;DHT22;11034;48.556;9.342;2023-07-29T05:16:41;18.80;99.90
21744;DHT22;11034;48.556;9.342;2023-07-29T05:19:10;18.60;99.90
21744;DHT22;11034;48.556;9.342;2023-07-29T05:21:40;18.30;99.90
21744;DHT22;11034;48.556;9.342;2023-07-29T05:24:08;18.10;99.90
21744;DHT22;11034;48.556;9.342;2023-07-29T05:26:37;17.60;99.90
21744;DHT22;11034;48.556;9.342;2023-07-29T05:29:05;17.20;99.90
21744;DHT22;11034;48.556;9.342;2023-07-29T05:31:33;16.80;99.90
21744;DHT22;11034;48.556;9.342;2023-07-29T05:34:01;16.60;99.90
21744;DHT22;11034;48.556;9.342;2023-07-29T05:36:30;16.50;99.90
21744;DHT22;11034;48.556;9.342;2023-07-29T05:38:59;16.50;99.90
21744;DHT22;11034;48.556;9.342;2023-07-29T05:41:27;16.50;99.90
21744;DHT22;11034;48.556;9.342;2023-07-29T05:43:55;16.60;99.90
21744;DHT22;11034;48.556;9.342;2023-07-29T05:46:23;16.80;99.90
21744;DHT22;11034;48.556;9.342;2023-07-29T05:48:52;16.80;99.90
21744;DHT22;11034;48.556;9.342;2023-07-29T05:51:20;16.90;99.90
21744;DHT22;11034;48.556;9.342;2023-07-29T05:53:48;17.00;99.90
21744;DHT22;11034;48.556;9.342;2023-07-29T05:56:17;17.30;99.90
21744;DHT22;11034;48.556;9.342;2023-07-29T05:58:45;17.60;99.90
21744;DHT22;11034;48.556;9.342;2023-07-29T06:01:13;18.30;99.90
21744;DHT22;11034;48.556;9.342;2023-07-29T06:03:41;19.60;99.90
21744;DHT22;11034;48.556;9.342;2023-07-29T06:06:09;21.70;99.90
21744;DHT22;11034;48.556;9.342;2023-07-29T06:08:37;22.10;99.90
21744;DHT22;11034;48.556;9.342;2023-07-29T06:11:05;22.40;99.90
21744;DHT22;11034;48.556;9.342;2023-07-29T06:13:35;22.20;99.90
21744;DHT22;11034;48.556;9.342;2023-07-29T06:16:03;22.10;99.90
21744;DHT22;11034;48.556;9.342;2023-07-29T06:18:32;23.00;99.90
21744;DHT22;11034;48.556;9.342;2023-07-29T06:21:00;24.10;99.90
21744;DHT22;11034;48.556;9.342;2023-07-29T06:23:28;23.90;99.90
21744;DHT22;11034;48.556;9.342;2023-07-29T06:25:56;24.40;99.90
21744;DHT22;11034;48.556;9.342;2023-07-29T06:28:24;24.30;99.90
21744;DHT22;11034;48.556;9.342;2023-07-29T06:30:53;23.70;99.90
21744;DHT22;11034;48.556;9.342;2023-07-29T06:33:21;23.00;99.90
21744;DHT22;11034;48.556;9.342;2023-07-29T06:35:50;22.20;99.90
21744;DHT22;11034;48.556;9.342;2023-07-29T06:38:18;21.80;99.90
21744;DHT22;11034;48.556;9.342;2023-07-29T06:40:48;21.50;99.90
21744;DHT22;11034;48.556;9.342;2023-07-29T06:43:16;21.30;99.90
21744;DHT22;11034;48.556;9.342;2023-07-29T06:45:45;21.20;99.90
21744;DHT22;11034;48.556;9.342;2023-07-29T06:48:14;21.20;99.90
21744;DHT22;11034;48.556;9.342;2023-07-29T06:50:42;21.20;99.90
21744;DHT22;11034;48.556;9.342;2023-07-29T06:53:10;21.20;99.90
21744;DHT22;11034;48.556;9.342;2023-07-29T06:55:38;21.10;99.90
21744;DHT22;11034;48.556;9.342;2023-07-29T06:58:07;21.10;99.90
21744;DHT22;11034;48.556;9.342;2023-07-29T07:00:35;21.10;99.90
21744;DHT22;11034;48.556;9.342;2023-07-29T07:03:04;21.00;99.90
21744;DHT22;11034;48.556;9.342;2023-07-29T07:05:33;20.90;99.90
21744;DHT22;11034;48.556;9.342;2023-07-29T07:08:02;20.70;99.90
21744;DHT22;11034;48.556;9.342;2023-07-29T07:10:30;20.40;99.90
21744;DHT22;11034;48.556;9.342;2023-07-29T07:13:00;20.10;99.90
21744;DHT22;11034;48.556;9.342;2023-07-29T07:15:28;19.90;99.90
21744;DHT22;11034;48.556;9.342;2023-07-29T07:17:56;19.40;99.90
21744;DHT22;11034;48.556;9.342;2023-07-29T07:20:24;18.80;99.90
21744;DHT22;11034;48.556;9.342;2023-07-29T07:22:54;18.20;99.90
21744;DHT22;11034;48.556;9.342;2023-07-29T07:25:22;17.80;99.90
21744;DHT22;11034;48.556;9.342;2023-07-29T07:27:50;17.80;99.90
21744;DHT22;11034;48.556;9.342;2023-07-29T07:30:18;17.60;99.90
21744;DHT22;11034;48.556;9.342;2023-07-29T07:32:46;17.50;99.90
21744;DHT22;11034;48.556;9.342;2023-07-29T07:35:15;17.50;99.90
21744;DHT22;11034;48.556;9.342;2023-07-29T07:37:44;17.50;99.90
21744;DHT22;11034;48.556;9.342;2023-07-29T07:40:14;17.60;99.90
21744;DHT22;11034;48.556;9.342;2023-07-29T07:42:43;17.60;99.90
21744;DHT22;11034;48.556;9.342;2023-07-29T07:45:11;17.70;99.90
21744;DHT22;11034;48.556;9.342;2023-07-29T07:47:39;17.70;99.90
21744;DHT22;11034;48.556;9.342;2023-07-29T07:50:08;17.80;99.90
21744;DHT22;11034;48.556;9.342;2023-07-29T07:52:36;17.80;99.90
21744;DHT22;11034;48.556;9.342;2023-07-29T07:55:04;17.90;99.90
21744;DHT22;11034;48.556;9.342;2023-07-29T07:57:34;17.90;99.90
21744;DHT22;11034;48.556;9.342;2023-07-29T08:00:03;17.90;99.90
21744;DHT22;11034;48.556;9.342;2023-07-29T08:02:31;17.90;99.90
21744;DHT22;11034;48.556;9.342;2023-07-29T08:04:59;18.00;99.90
21744;DHT22;11034;48.556;9.342;2023-07-29T08:07:27;18.10;99.90
21744;DHT22;11034;48.556;9.342;2023-07-29T08:09:56;18.20;99.90
21744;DHT22;11034;48.556;9.342;2023-07-29T08:12:24;18.40;99.90
21744;DHT22;11034;48.556;9.342;2023-07-29T08:14:56;18.70;99.90
21744;DHT22;11034;48.556;9.342;2023-07-29T08:17:24;18.90;99.90
21744;DHT22;11034;48.556;9.342;2023-07-29T08:19:52;19.00;99.90
21744;DHT22;11034;48.556;9.342;2023-07-29T08:22:20;19.10;99.90
21744;DHT22;11034;48.556;9.342;2023-07-29T08:24:48;19.30;99.90
21744;DHT22;11034;48.556;9.342;2023-07-29T08:27:16;19.40;99.90
21744;DHT22;11034;48.556;9.342;2023-07-29T08:29:44;19.40;99.90
21744;DHT22;11034;48.556;9.342;2023-07-29T08:32:14;19.40;99.90
21744;DHT22;11034;48.556;9.342;2023-07-29T08:34:42;19.50;99.90
21744;DHT22;11034;48.556;9.342;2023-07-29T08:37:10;19.60;99.90
21744;DHT22;11034;48.556;9.342;2023-07-29T08:39:38;19.70;99.90
21744;DHT22;11034;48.556;9.342;2023-07-29T08:42:08;19.80;99.90
21744;DHT22;11034;48.556;9.342;2023-07-29T08:44:40;19.90;99.90
21744;DHT22;11034;48.556;9.342;2023-07-29T08:47:09;19.90;99.90
21744;DHT22;11034;48.556;9.342;2023-07-29T08:49:38;19.80;99.90
21744;DHT22;11034;48.556;9.342;2023-07-29T08:52:07;19.70;99.90
21744;DHT22;11034;48.556;9.342;2023-07-29T08:54:35;19.70;99.90
21744;DHT22;11034;48.556;9.342;2023-07-29T08:57:04;19.90;99.90
21744;DHT22;11034;48.556;9.342;2023-07-29T08:59:33;20.00;99.90
21744;DHT22;11034;48.556;9.342;2023-07-29T09:02:01;20.00;99.90
21744;DHT22;11034;48.556;9.342;2023-07-29T09:04:29;19.90;99.90
21744;DHT22;11034;48.556;9.342;2023-07-29T09:06:59;19.80;99.90
21744;DHT22;11034;48.556;9.342;2023-07-29T09:09:28;19.90;99.90
21744;DHT22;11034;48.556;9.342;2023-07-29T09:11:56;20.00;99.90
21744;DHT22;11034;48.556;9.342;2023-07-29T09:14:24;20.20;99.90
21744;DHT22;11034;48.556;9.342;2023-07-29T09:16:53;20.50;99.90
21744;DHT22;11034;48.556;9.342;2023-07-29T09:19:25;21.50;99.90
21744;DHT22;11034;48.556;9.342;2023-07-29T09:21:53;22.00;99.90
21744;DHT22;11034;48.556;9.342;2023-07-29T09:24:23;22.50;99.90
21744;DHT22;11034;48.556;9.342;2023-07-29T09:26:51;22.50;99.90
21744;DHT22;11034;48.556;9.342;2023-07-29T09:29:22;22.40;99.90
21744;DHT22;11034;48.556;9.342;2023-07-29T09:31:50;22.30;99.90
21744;DHT22;11034;48.556;9.342;2023-07-29T09:34:18;22.40;99.90
21744;DHT22;11034;48.556;9.342;2023-07-29T09:36:50;22.60;99.90
21744;DHT22;11034;48.556;9.342;2023-07-29T09:39:18;22.90;99.90
21744;DHT22;11034;48.556;9.342;2023-07-29T09:41:55;23.10;99.90
21744;DHT22;11034;48.556;9.342;2023-07-29T09:44:23;23.40;99.90
21744;DHT22;11034;48.556;9.342;2023-07-29T09:46:51;23.60;99.90
21744;DHT22;11034;48.556;9.342;2023-07-29T09:49:19;23.50;99.90
21744;DHT22;11034;48.556;9.342;2023-07-29T09:51:51;23.40;99.90
21744;DHT22;11034;48.556;9.342;2023-07-29T09:54:23;23.60;99.90
21744;DHT22;11034;48.556;9.342;2023-07-29T09:56:51;23.40;99.90
21744;DHT22;11034;48.556;9.342;2023-07-29T09:59:23;24.00;99.90
21744;DHT22;11034;48.556;9.342;2023-07-29T10:02:00;24.20;99.90
21744;DHT22;11034;48.556;9.342;2023-07-29T10:04:32;24.70;99.90
21744;DHT22;11034;48.556;9.342;2023-07-29T10:07:07;25.10;99.90
21744;DHT22;11034;48.556;9.342;2023-07-29T10:09:39;25.00;99.90
21744;DHT22;11034;48.556;9.342;2023-07-29T10:12:09;24.70;99.90
21744;DHT22;11034;48.556;9.342;2023-07-29T10:14:39;24.30;99.90
21744;DHT22;11034;48.556;9.342;2023-07-29T10:17:20;24.50;99.90
21744;DHT22;11034;48.556;9.342;2023-07-29T10:24:05;24.40;99.90
21744;DHT22;11034;48.556;9.342;2023-07-29T10:26:46;24.00;99.90
21744;DHT22;11034;48.556;9.342;2023-07-29T10:29:17;24.20;99.90
21744;DHT22;11034;48.556;9.342;2023-07-29T10:31:48;24.30;99.90
21744;DHT22;11034;48.556;9.342;2023-07-29T10:34:20;24.10;99.90
21744;DHT22;11034;48.556;9.342;2023-07-29T10:36:50;23.80;99.90
21744;DHT22;11034;48.556;9.342;2023-07-29T10:39:19;23.80;99.90
21744;DHT22;11034;48.556;9.342;2023-07-29T10:41:57;24.00;99.90
21744;DHT22;11034;48.556;9.342;2023-07-29T10:44:50;24.50;99.90
21744;DHT22;11034;48.556;9.342;2023-07-29T10:47:25;24.90;99.90
21744;DHT22;11034;48.556;9.342;2023-07-29T10:49:55;24.90;99.90
21744;DHT22;11034;48.556;9.342;2023-07-29T10:52:31;25.10;99.90
21744;DHT22;11034;48.556;9.342;2023-07-29T10:55:32;25.10;99.90
21744;DHT22;11034;48.556;9.342;2023-07-29T10:58:14;25.40;99.90
21744;DHT22;11034;48.556;9.342;2023-07-29T11:00:45;25.10;99.90
21744;DHT22;11034;48.556;9.342;2023-07-29T11:03:16;25.00;99.90
21744;DHT22;11034;48.556;9.342;2023-07-29T11:05:49;25.50;99.90
21744;DHT22;11034;48.556;9.342;2023-07-29T11:08:19;25.70;99.90
21744;DHT22;11034;48.556;9.342;2023-07-29T11:11:04;25.60;99.90
21744;DHT22;11034;48.556;9.342;2023-07-29T11:13:34;25.40;99.90
21744;DHT22;11034;48.556;9.342;2023-07-29T11:16:03;25.50;99.90
21744;DHT22;11034;48.556;9.342;2023-07-29T11:18:35;25.50;99.90
21744;DHT22;11034;48.556;9.342;2023-07-29T11:21:04;25.80;99.90
21744;DHT22;11034;48.556;9.342;2023-07-29T11:23:33;25.60;99.90
21744;DHT22;11034;48.556;9.342;2023-07-29T11:26:03;25.90;99.90
21744;DHT22;11034;48.556;9.342;2023-07-29T11:28:38;26.10;99.90
21744;DHT22;11034;48.556;9.342;2023-07-29T11:31:06;26.10;99.90
21744;DHT22;11034;48.556;9.342;2023-07-29T11:33:38;25.80;99.90
21744;DHT22;11034;48.556;9.342;2023-07-29T11:36:17;25.60;99.90
21744;DHT22;11034;48.556;9.342;2023-07-29T11:38:46;25.60;99.90
21744;DHT22;11034;48.556;9.342;2023-07-29T11:41:19;25.40;99.90
21744;DHT22;11034;48.556;9.342;2023-07-29T11:43:47;25.50;99.90
21744;DHT22;11034;48.556;9.342;2023-07-29T11:46:15;25.60;99.90
21744;DHT22;11034;48.556;9.342;2023-07-29T11:48:49;25.50;99.90
21744;DHT22;11034;48.556;9.342;2023-07-29T11:51:17;25.70;99.90
21744;DHT22;11034;48.556;9.342;2023-07-29T11:53:45;25.90;99.90
21744;DHT22;11034;48.556;9.342;2023-07-29T11:56:14;25.90;99.90
21744;DHT22;11034;48.556;9.342;2023-07-29T11:58:42;25.90;99.90
21744;DHT22;11034;48.556;9.342;2023-07-29T12:01:10;26.10;99.90
21744;DHT22;11034;48.556;9.342;2023-07-29T12:03:38;26.30;99.90
21744;DHT22;11034;48.556;9.342;2023-07-29T12:06:12;25.70;99.90
21744;DHT22;11034;48.556;9.342;2023-07-29T12:08:40;25.60;99.90
21744;DHT22;11034;48.556;9.342;2023-07-29T12:11:10;25.40;99.90
21744;DHT22;11034;48.556;9.342;2023-07-29T12:13:38;25.30;99.90
21744;DHT22;11034;48.556;9.342;2023-07-29T12:16:06;25.20;99.90
21744;DHT22;11034;48.556;9.342;2023-07-29T12:18:35;25.20;99.90
21744;DHT22;11034;48.556;9.342;2023-07-29T12:21:03;25.10;99.90
21744;DHT22;11034;48.556;9.342;2023-07-29T12:23:34;25.30;99.90
21744;DHT22;11034;48.556;9.342;2023-07-29T12:26:02;25.30;99.90
21744;DHT22;11034;48.556;9.342;2023-07-29T12:28:30;25.20;99.90
21744;DHT22;11034;48.556;9.342;2023-07-29T12:30:59;25.10;99.90
21744;DHT22;11034;48.556;9.342;2023-07-29T12:33:30;25.10;99.90
21744;DHT22;11034;48.556;9.342;2023-07-29T12:35:59;25.10;99.90
21744;DHT22;11034;48.556;9.342;2023-07-29T12:38:27;25.40;99.90
21744;DHT22;11034;48.556;9.342;2023-07-29T12:40:57;25.20;99.90
21744;DHT22;11034;48.556;9.342;2023-07-29T12:43:25;25.40;99.90
21744;DHT22;11034;48.556;9.342;2023-07-29T12:45:54;25.40;99.90
21744;DHT22;11034;48.556;9.342;2023-07-29T12:48:22;25.40;99.90
21744;DHT22;11034;48.556;9.342;2023-07-29T12:50:50;25.40;99.90
21744;DHT22;11034;48.556;9.342;2023-07-29T12:53:18;25.50;99.90
21744;DHT22;11034;48.556;9.342;2023-07-29T12:55:46;25.40;99.90
21744;DHT22;11034;48.556;9.342;2023-07-29T12:58:16;25.40;99.90
21744;DHT22;11034;48.556;9.342;2023-07-29T13:00:44;25.10;99.90
21744;DHT22;11034;48.556;9.342;2023-07-29T13:03:12;25.40;99.90
21744;DHT22;11034;48.556;9.342;2023-07-29T13:05:41;25.40;99.90
21744;DHT22;11034;48.556;9.342;2023-07-29T13:08:10;25.40;99.90
21744;DHT22;11034;48.556;9.342;2023-07-29T13:10:39;25.50;99.90
21744;DHT22;11034;48.556;9.342;2023-07-29T13:13:08;25.80;99.90
21744;DHT22;11034;48.556;9.342;2023-07-29T13:15:39;26.00;99.90
21744;DHT22;11034;48.556;9.342;2023-07-29T13:18:07;26.30;99.90
21744;DHT22;11034;48.556;9.342;2023-07-29T13:20:35;26.50;99.90
21744;DHT22;11034;48.556;9.342;2023-07-29T13:23:04;26.50;99.90
21744;DHT22;11034;48.556;9.342;2023-07-29T13:25:34;26.20;99.90
21744;DHT22;11034;48.556;9.342;2023-07-29T13:28:05;26.20;99.90
21744;DHT22;11034;48.556;9.342;2023-07-29T13:30:34;25.80;99.90
21744;DHT22;11034;48.556;9.342;2023-07-29T13:33:06;25.80;99.90
21744;DHT22;11034;48.556;9.342;2023-07-29T13:35:34;25.90;99.90
21744;DHT22;11034;48.556;9.342;2023-07-29T13:38:06;25.80;99.90
21744;DHT22;11034;48.556;9.342;2023-07-29T13:40:34;26.00;99.90
21744;DHT22;11034;48.556;9.342;2023-07-29T13:43:04;26.10;99.90
21744;DHT22;11034;48.556;9.342;2023-07-29T13:45:33;25.80;99.90
21744;DHT22;11034;48.556;9.342;2023-07-29T13:48:02;25.70;99.90
21744;DHT22;11034;48.556;9.342;2023-07-29T13:50:32;25.70;99.90
21744;DHT22;11034;48.556;9.342;2023-07-29T13:53:00;25.50;99.90
21744;DHT22;11034;48.556;9.342;2023-07-29T13:55:28;25.50;99.90
21744;DHT22;11034;48.556;9.342;2023-07-29T13:57:56;25.60;99.90
21744;DHT22;11034;48.556;9.342;2023-07-29T14:00:24;25.50;99.90
21744;DHT22;11034;48.556;9.342;2023-07-29T14:02:52;25.40;99.90
21744;DHT22;11034;48.556;9.342;2023-07-29T14:05:21;25.10;99.90
21744;DHT22;11034;48.556;9.342;2023-07-29T14:07:50;25.00;99.90
21744;DHT22;11034;48.556;9.342;2023-07-29T14:10:18;25.20;99.90
21744;DHT22;11034;48.556;9.342;2023-07-29T14:12:46;25.10;99.90
21744;DHT22;11034;48.556;9.342;2023-07-29T14:15:14;25.20;99.90
21744;DHT22;11034;48.556;9.342;2023-07-29T14:17:42;25.30;99.90
21744;DHT22;11034;48.556;9.342;2023-07-29T14:20:11;25.30;99.90
21744;DHT22;11034;48.556;9.342;2023-07-29T14:22:39;25.40;99.90
21744;DHT22;11034;48.556;9.342;2023-07-29T14:25:09;25.50;99.90
21744;DHT22;11034;48.556;9.342;2023-07-29T14:27:37;25.50;99.90
21744;DHT22;11034;48.556;9.342;2023-07-29T14:30:06;25.50;99.90
21744;DHT22;11034;48.556;9.342;2023-07-29T14:32:34;25.40;99.90
21744;DHT22;11034;48.556;9.342;2023-07-29T14:35:04;25.40;99.90
21744;DHT22;11034;48.556;9.342;2023-07-29T14:37:33;25.30;99.90
21744;DHT22;11034;48.556;9.342;2023-07-29T14:40:01;25.40;99.90
21744;DHT22;11034;48.556;9.342;2023-07-29T14:42:31;25.40;99.90
21744;DHT22;11034;48.556;9.342;2023-07-29T14:45:02;25.10;99.90
21744;DHT22;11034;48.556;9.342;2023-07-29T14:47:30;25.00;99.90
21744;DHT22;11034;48.556;9.342;2023-07-29T14:50:02;25.10;99.90
21744;DHT22;11034;48.556;9.342;2023-07-29T14:52:30;24.80;99.90
21744;DHT22;11034;48.556;9.342;2023-07-29T14:54:58;25.00;99.90
21744;DHT22;11034;48.556;9.342;2023-07-29T14:57:26;25.30;99.90
21744;DHT22;11034;48.556;9.342;2023-07-29T14:59:55;25.30;99.90
21744;DHT22;11034;48.556;9.342;2023-07-29T15:02:23;25.20;99.90
21744;DHT22;11034;48.556;9.342;2023-07-29T15:04:52;25.20;99.90
21744;DHT22;11034;48.556;9.342;2023-07-29T15:07:20;25.20;99.90
21744;DHT22;11034;48.556;9.342;2023-07-29T15:09:48;25.30;99.90
21744;DHT22;11034;48.556;9.342;2023-07-29T15:12:16;25.20;99.90
21744;DHT22;11034;48.556;9.342;2023-07-29T15:14:44;25.20;99.90
21744;DHT22;11034;48.556;9.342;2023-07-29T15:17:15;25.30;99.90
21744;DHT22;11034;48.556;9.342;2023-07-29T15:19:43;25.40;99.90
21744;DHT22;11034;48.556;9.342;2023-07-29T15:22:16;25.30;99.90
21744;DHT22;11034;48.556;9.342;2023-07-29T15:24:44;25.10;99.90
21744;DHT22;11034;48.556;9.342;2023-07-29T15:27:13;25.10;99.90
21744;DHT22;11034;48.556;9.342;2023-07-29T15:29:41;24.90;99.90
21744;DHT22;11034;48.556;9.342;2023-07-29T15:32:09;24.90;99.90
21744;DHT22;11034;48.556;9.342;2023-07-29T15:34:39;25.00;99.90
21744;DHT22;11034;48.556;9.342;2023-07-29T15:37:07;25.10;99.90
21744;DHT22;11034;48.556;9.342;2023-07-29T15:39:35;25.20;99.90
21744;DHT22;11034;48.556;9.342;2023-07-29T15:42:04;25.20;99.90
21744;DHT22;11034;48.556;9.342;2023-07-29T15:44:32;25.20;99.90
21744;DHT22;11034;48.556;9.342;2023-07-29T15:47:00;25.20;99.90